createdAt,value
2023-03-06T00:00:37.492Z,4.68
2023-03-06T00:03:04.287Z,4.61
2023-03-06T00:05:30.684Z,4.57
2023-03-06T00:07:57.149Z,4.53
2023-03-06T00:10:28.198Z,4.46
2023-03-06T00:12:55.772Z,4.36
2023-03-06T00:15:22.942Z,4.32
2023-03-06T00:17:49.240Z,4.27
2023-03-06T00:20:15.847Z,4.23
2023-03-06T00:22:42.313Z,4.22
2023-03-06T00:25:12.510Z,4.15
2023-03-06T00:27:38.775Z,4.10
2023-03-06T00:30:05.758Z,4.05
2023-03-06T00:32:32.131Z,4.05
2023-03-06T00:34:58.478Z,4.01
2023-03-06T00:37:25.449Z,3.97
2023-03-06T00:39:51.867Z,3.93
2023-03-06T00:42:18.903Z,3.87
2023-03-06T00:44:45.507Z,3.86
2023-03-06T00:47:12.285Z,3.82
2023-03-06T00:49:38.544Z,3.77
2023-03-06T00:52:05.220Z,3.75
2023-03-06T00:54:31.543Z,3.72
2023-03-06T00:56:57.875Z,3.68
2023-03-06T00:59:24.210Z,3.61
2023-03-06T01:01:50.621Z,3.59
2023-03-06T01:04:16.956Z,3.57
2023-03-06T01:06:43.291Z,3.53
2023-03-06T01:09:09.575Z,3.47
2023-03-06T01:11:35.854Z,3.47
2023-03-06T01:14:02.111Z,3.44
2023-03-06T01:16:28.660Z,3.41
2023-03-06T01:18:54.958Z,3.41
2023-03-06T01:21:21.232Z,3.37
2023-03-06T01:23:47.601Z,3.32
2023-03-06T01:26:14.105Z,3.29
2023-03-06T01:28:40.825Z,3.29
2023-03-06T01:31:07.646Z,3.28
2023-03-06T01:33:34.575Z,3.30
2023-03-06T01:36:03.911Z,3.27
2023-03-06T01:38:30.220Z,3.23
2023-03-06T01:40:56.562Z,3.25
2023-03-06T01:43:28.836Z,3.24
2023-03-06T01:46:13.618Z,3.24
2023-03-06T01:48:39.938Z,3.23
2023-03-06T01:51:06.415Z,3.28
2023-03-06T01:53:32.820Z,3.28
2023-03-06T01:55:59.156Z,3.28
2023-03-06T01:58:25.481Z,3.29
2023-03-06T02:00:51.805Z,3.30
2023-03-06T02:03:22.541Z,3.33
2023-03-06T02:05:48.863Z,3.32
2023-03-06T02:08:16.914Z,3.31
2023-03-06T02:10:50.054Z,3.32
2023-03-06T02:13:16.414Z,3.34
2023-03-06T02:15:42.681Z,3.32
2023-03-06T02:18:08.961Z,3.26
2023-03-06T02:20:43.514Z,3.32
2023-03-06T02:23:28.369Z,3.33
2023-03-06T02:25:55.254Z,3.29
2023-03-06T02:28:22.585Z,3.29
2023-03-06T02:30:50.265Z,3.31
2023-03-06T02:33:18.467Z,3.31
2023-03-06T02:35:53.151Z,3.33
2023-03-06T02:38:20.951Z,3.36
2023-03-06T02:40:49.555Z,3.39
2023-03-06T02:43:18.195Z,3.42
2023-03-06T02:45:46.155Z,3.43
2023-03-06T02:48:13.208Z,3.44
2023-03-06T02:50:39.954Z,3.50
2023-03-06T02:53:06.681Z,3.51
2023-03-06T02:55:33.785Z,3.49
2023-03-06T02:58:00.254Z,3.50
2023-03-06T03:00:26.887Z,3.57
2023-03-06T03:02:53.835Z,3.58
2023-03-06T03:05:20.186Z,3.63
2023-03-06T03:07:46.611Z,3.56
2023-03-06T03:10:13.811Z,3.60
2023-03-06T03:12:40.420Z,3.63
2023-03-06T03:15:07.037Z,3.65
2023-03-06T03:17:35.689Z,3.69
2023-03-06T03:20:02.381Z,3.69
2023-03-06T03:22:28.691Z,3.71
2023-03-06T03:24:54.982Z,3.75
2023-03-06T03:27:21.339Z,3.75
2023-03-06T03:29:47.629Z,3.77
2023-03-06T03:32:13.962Z,3.77
2023-03-06T03:34:40.234Z,3.76
2023-03-06T03:37:06.523Z,3.81
2023-03-06T03:39:32.892Z,3.82
2023-03-06T03:41:59.316Z,3.82
2023-03-06T03:44:25.617Z,3.82
2023-03-06T03:46:54.168Z,3.92
2023-03-06T03:49:20.448Z,3.90
2023-03-06T03:51:46.705Z,3.92
2023-03-06T03:54:13.062Z,3.94
2023-03-06T03:56:40.648Z,4.01
2023-03-06T03:59:07.412Z,3.93
2023-03-06T04:01:34.060Z,3.97
2023-03-06T04:04:00.395Z,3.94
2023-03-06T04:06:26.738Z,4.05
2023-03-06T04:08:53.220Z,4.01
2023-03-06T04:11:19.715Z,4.01
2023-03-06T04:13:46.081Z,3.96
2023-03-06T04:16:12.440Z,4.04
2023-03-06T04:18:38.854Z,4.05
2023-03-06T04:21:05.425Z,4.05
2023-03-06T04:23:31.832Z,4.05
2023-03-06T04:25:58.187Z,4.03
2023-03-06T04:28:24.837Z,4.08
2023-03-06T04:30:51.161Z,4.11
2023-03-06T04:33:18.178Z,4.13
2023-03-06T04:35:44.564Z,4.08
2023-03-06T04:38:10.852Z,4.13
2023-03-06T04:40:37.208Z,4.12
2023-03-06T04:43:04.235Z,4.15
2023-03-06T04:45:31.376Z,4.14
2023-03-06T04:47:57.737Z,4.15
2023-03-06T04:50:24.900Z,4.14
2023-03-06T04:52:51.687Z,4.18
2023-03-06T04:55:18.502Z,4.20
2023-03-06T04:57:45.485Z,4.21
2023-03-06T05:00:13.974Z,4.23
2023-03-06T05:02:41.790Z,4.27
2023-03-06T05:05:08.346Z,4.29
2023-03-06T05:07:34.693Z,4.29
2023-03-06T05:10:01.116Z,4.30
2023-03-06T05:12:27.435Z,4.27
2023-03-06T05:14:53.780Z,4.30
2023-03-06T05:17:20.044Z,4.34
2023-03-06T05:19:46.376Z,4.36
2023-03-06T05:22:12.682Z,4.40
2023-03-06T05:24:38.992Z,4.40
2023-03-06T05:27:05.342Z,4.41
2023-03-06T05:29:31.614Z,4.44
2023-03-06T05:31:58.875Z,4.40
2023-03-06T05:34:25.290Z,4.39
2023-03-06T05:36:51.733Z,4.40
2023-03-06T05:39:18.045Z,4.39
2023-03-06T05:41:44.319Z,4.40
2023-03-06T05:44:10.606Z,4.38
2023-03-06T05:46:38.024Z,4.31
2023-03-06T05:49:04.346Z,4.28
2023-03-06T05:51:31.485Z,4.27
2023-03-06T05:53:57.904Z,4.24
2023-03-06T05:56:24.247Z,4.27
2023-03-06T05:58:51.581Z,4.25
2023-03-06T06:01:18.949Z,4.23
2023-03-06T06:03:45.289Z,4.29
2023-03-06T06:06:12.352Z,4.26
2023-03-06T06:08:38.788Z,4.16
2023-03-06T06:11:05.647Z,4.04
2023-03-06T06:13:32.045Z,4.14
2023-03-06T06:15:58.371Z,4.12
2023-03-06T06:18:24.753Z,4.09
2023-03-06T06:20:51.245Z,4.11
2023-03-06T06:23:17.657Z,4.15
2023-03-06T06:25:43.974Z,4.18
2023-03-06T06:28:12.356Z,4.15
2023-03-06T06:30:38.862Z,4.14
2023-03-06T06:33:05.163Z,4.15
2023-03-06T06:35:35.377Z,4.22
2023-03-06T06:38:01.638Z,4.24
2023-03-06T06:40:29.570Z,4.26
2023-03-06T06:42:55.950Z,4.21
2023-03-06T06:45:22.269Z,3.99
2023-03-06T06:47:49.977Z,4.02
2023-03-06T06:50:16.408Z,3.93
2023-03-06T06:52:42.735Z,4.03
2023-03-06T06:55:09.286Z,4.08
2023-03-06T06:57:35.614Z,3.89
2023-03-06T07:00:02.034Z,3.62
2023-03-06T07:02:28.431Z,3.84
2023-03-06T07:05:04.162Z,4.00
2023-03-06T07:07:33.435Z,3.96
2023-03-06T07:09:59.721Z,4.11
2023-03-06T07:12:26.123Z,4.23
2023-03-06T07:14:52.422Z,4.33
2023-03-06T07:17:18.707Z,4.50
2023-03-06T07:19:45.048Z,4.62
2023-03-06T07:22:11.683Z,4.75
2023-03-06T07:24:37.980Z,4.83
2023-03-06T07:27:04.251Z,4.69
2023-03-06T07:29:32.779Z,4.80
2023-03-06T07:31:59.197Z,4.87
2023-03-06T07:34:25.540Z,4.97
2023-03-06T07:36:51.953Z,5.02
2023-03-06T07:39:18.275Z,4.74
2023-03-06T07:41:44.681Z,4.72
2023-03-06T07:44:11.009Z,4.93
2023-03-06T07:46:37.434Z,4.92
2023-03-06T07:49:04.031Z,5.25
2023-03-06T07:51:30.370Z,5.26
2023-03-06T07:53:56.742Z,5.45
2023-03-06T07:56:23.124Z,5.37
2023-03-06T07:58:49.420Z,5.36
2023-03-06T08:01:17.562Z,5.32
2023-03-06T08:03:44.345Z,5.45
2023-03-06T08:06:18.238Z,5.83
2023-03-06T08:08:45.374Z,6.21
2023-03-06T08:11:12.668Z,6.33
2023-03-06T08:13:39.307Z,6.21
2023-03-06T08:16:06.057Z,6.21
2023-03-06T08:18:33.140Z,6.46
2023-03-06T08:21:05.737Z,6.85
2023-03-06T08:23:32.880Z,7.01
2023-03-06T08:26:00.209Z,7.27
2023-03-06T08:28:26.953Z,7.74
2023-03-06T08:30:53.849Z,8.04
2023-03-06T08:33:20.193Z,8.34
2023-03-06T08:35:46.499Z,8.36
2023-03-06T08:38:12.952Z,8.37
2023-03-06T08:40:39.292Z,8.06
2023-03-06T08:43:08.443Z,7.99
2023-03-06T08:45:34.835Z,7.72
2023-03-06T08:48:01.335Z,7.62
2023-03-06T08:50:27.641Z,7.60
2023-03-06T08:52:53.926Z,7.45
2023-03-06T08:55:20.248Z,7.58
2023-03-06T08:57:46.568Z,7.92
2023-03-06T09:00:13.712Z,8.18
2023-03-06T09:02:40.101Z,8.07
2023-03-06T09:05:07.897Z,8.12
2023-03-06T09:07:34.930Z,7.97
2023-03-06T09:10:01.376Z,8.31
2023-03-06T09:12:29.266Z,8.69
2023-03-06T09:14:57.110Z,9.11
2023-03-06T09:17:23.564Z,9.53
2023-03-06T09:19:50.910Z,9.87
2023-03-06T09:22:17.219Z,9.86
2023-03-06T09:24:43.536Z,9.67
2023-03-06T09:27:09.797Z,9.57
2023-03-06T09:29:36.078Z,9.47
2023-03-06T09:32:02.463Z,9.01
2023-03-06T09:34:28.869Z,9.00
2023-03-06T09:36:57.194Z,8.69
2023-03-06T09:39:24.570Z,8.67
2023-03-06T09:41:51.314Z,8.44
2023-03-06T09:44:22.710Z,8.24
2023-03-06T09:47:00.567Z,8.36
2023-03-06T09:49:53.205Z,8.45
2023-03-06T09:52:39.921Z,8.89
2023-03-06T09:55:09.381Z,9.84
2023-03-06T09:57:37.156Z,10.17
2023-03-06T10:00:07.210Z,10.39
2023-03-06T10:02:45.620Z,10.70
2023-03-06T10:05:32.238Z,11.02
2023-03-06T10:08:18.831Z,11.27
2023-03-06T10:10:57.593Z,11.22
2023-03-06T10:13:28.138Z,11.38
2023-03-06T10:16:00.287Z,11.24
2023-03-06T10:18:26.592Z,11.12
2023-03-06T10:21:02.620Z,11.21
2023-03-06T10:23:45.757Z,11.50
2023-03-06T10:26:15.612Z,10.80
2023-03-06T10:28:44.603Z,10.70
2023-03-06T10:31:13.662Z,10.36
2023-03-06T10:33:57.336Z,10.38
2023-03-06T10:36:27.762Z,10.85
2023-03-06T10:38:55.088Z,11.17
2023-03-06T10:41:27.179Z,11.38
2023-03-06T10:43:59.733Z,10.95
2023-03-06T10:46:30.950Z,10.71
2023-03-06T10:48:58.979Z,10.10
2023-03-06T10:51:25.890Z,10.04
2023-03-06T10:54:01.315Z,10.16
2023-03-06T10:56:28.175Z,10.56
2023-03-06T10:59:13.049Z,11.08
2023-03-06T11:01:43.616Z,11.48
2023-03-06T11:04:17.442Z,11.93
2023-03-06T11:06:43.797Z,12.39
2023-03-06T11:09:36.494Z,12.82
2023-03-06T11:12:21.501Z,13.17
2023-03-06T11:14:47.802Z,13.30
2023-03-06T11:17:27.107Z,13.10
2023-03-06T11:20:07.295Z,12.96
2023-03-06T11:22:34.758Z,12.08
2023-03-06T11:25:01.464Z,11.89
2023-03-06T11:27:34.429Z,11.68
2023-03-06T11:30:02.301Z,11.42
2023-03-06T11:32:31.042Z,11.19
2023-03-06T11:34:59.344Z,11.04
2023-03-06T11:37:31.774Z,10.92
2023-03-06T11:40:06.625Z,10.98
2023-03-06T11:42:37.621Z,11.44
2023-03-06T11:45:19.162Z,11.70
2023-03-06T11:47:54.591Z,11.98
2023-03-06T11:50:38.532Z,12.35
2023-03-06T11:53:12.108Z,12.31
2023-03-06T11:55:49.207Z,12.64
2023-03-06T11:58:33.780Z,12.98
2023-03-06T12:01:09.058Z,13.16
2023-03-06T12:03:41.123Z,13.30
2023-03-06T12:06:09.648Z,13.39
2023-03-06T12:08:40.011Z,13.48
2023-03-06T12:13:58.644Z,13.05
2023-03-06T12:16:32.409Z,13.13
2023-03-06T12:18:58.726Z,13.24
2023-03-06T12:21:41.834Z,13.21
2023-03-06T12:24:21.489Z,13.50
2023-03-06T12:26:47.746Z,13.59
2023-03-06T12:29:33.415Z,13.53
2023-03-06T12:32:02.585Z,13.30
2023-03-06T12:34:29.033Z,13.19
2023-03-06T12:36:58.330Z,13.36
2023-03-06T12:39:36.446Z,13.52
2023-03-06T12:42:23.269Z,13.69
2023-03-06T12:45:15.852Z,13.43
2023-03-06T12:47:43.392Z,13.06
2023-03-06T12:50:26.985Z,12.92
2023-03-06T12:52:55.146Z,12.96
2023-03-06T12:55:24.930Z,13.04
2023-03-06T12:57:52.654Z,12.92
2023-03-06T13:00:34.134Z,12.87
2023-03-06T13:03:13.537Z,13.13
2023-03-06T13:05:53.121Z,13.08
2023-03-06T13:08:25.461Z,13.43
2023-03-06T13:11:13.383Z,13.62
2023-03-06T13:13:47.015Z,13.78
2023-03-06T13:16:33.679Z,13.49
2023-03-06T13:19:18.950Z,13.95
2023-03-06T13:22:05.570Z,13.60
2023-03-06T13:24:33.114Z,13.45
2023-03-06T13:27:00.848Z,13.00
2023-03-06T13:29:36.508Z,13.19
2023-03-06T13:32:02.942Z,13.17
2023-03-06T13:34:32.076Z,12.95
2023-03-06T13:37:13.375Z,12.84
2023-03-06T13:39:54.733Z,12.97
2023-03-06T13:42:35.259Z,12.96
2023-03-06T13:45:08.918Z,12.56
2023-03-06T13:47:59.057Z,12.46
2023-03-06T13:50:28.557Z,12.53
2023-03-06T13:53:05.104Z,12.54
2023-03-06T13:55:39.973Z,12.54
2023-03-06T13:58:17.261Z,12.48
2023-03-06T14:00:54.256Z,12.39
2023-03-06T14:03:20.630Z,12.48
2023-03-06T14:05:47.984Z,12.48
2023-03-06T14:08:17.170Z,12.38
2023-03-06T14:10:44.830Z,12.41
2023-03-06T14:13:16.299Z,12.38
2023-03-06T14:15:44.656Z,11.88
2023-03-06T14:18:23.719Z,12.13
2023-03-06T14:21:11.931Z,12.17
2023-03-06T14:23:42.502Z,12.14
2023-03-06T14:26:17.550Z,12.09
2023-03-06T14:28:45.836Z,12.08
2023-03-06T14:31:15.996Z,11.87
2023-03-06T14:33:43.620Z,11.75
2023-03-06T14:36:14.903Z,11.86
2023-03-06T14:38:47.982Z,11.56
2023-03-06T14:41:22.103Z,11.57
2023-03-06T14:43:48.389Z,11.60
2023-03-06T14:46:19.041Z,11.52
2023-03-06T14:48:46.127Z,11.48
2023-03-06T14:51:18.597Z,11.16
2023-03-06T14:53:46.284Z,11.18
2023-03-06T14:56:19.912Z,11.21
2023-03-06T14:58:55.392Z,10.92
2023-03-06T15:01:26.358Z,10.92
2023-03-06T15:03:55.413Z,10.86
2023-03-06T15:06:27.276Z,10.60
2023-03-06T15:09:02.416Z,10.54
2023-03-06T15:11:48.609Z,10.43
2023-03-06T15:14:18.005Z,10.27
2023-03-06T15:16:44.403Z,10.29
2023-03-06T15:19:23.164Z,10.27
2023-03-06T15:21:51.052Z,10.10
2023-03-06T15:24:30.680Z,9.71
2023-03-06T15:26:59.910Z,9.49
2023-03-06T15:29:27.208Z,9.06
2023-03-06T15:32:12.093Z,8.75
2023-03-06T15:34:38.449Z,8.38
2023-03-06T15:37:19.065Z,8.19
2023-03-06T15:39:46.488Z,7.96
2023-03-06T15:42:15.788Z,7.88
2023-03-06T15:44:42.356Z,7.86
2023-03-06T15:47:11.957Z,7.82
2023-03-06T15:49:39.035Z,7.84
2023-03-06T15:52:06.387Z,7.76
2023-03-06T15:54:33.200Z,7.57
2023-03-06T15:56:59.880Z,7.45
2023-03-06T15:59:27.975Z,7.37
2023-03-06T16:01:54.431Z,7.21
2023-03-06T16:04:20.726Z,7.20
2023-03-06T16:06:47.142Z,7.09
2023-03-06T16:09:13.614Z,7.06
2023-03-06T16:11:44.755Z,7.01
2023-03-06T16:14:23.525Z,6.94
2023-03-06T16:16:51.152Z,6.92
2023-03-06T16:19:25.988Z,7.00
2023-03-06T16:21:53.491Z,7.03
2023-03-06T16:24:19.824Z,6.87
2023-03-06T16:26:52.940Z,6.87
2023-03-06T16:29:20.165Z,6.94
2023-03-06T16:31:46.655Z,6.85
2023-03-06T16:34:13.152Z,6.86
2023-03-06T16:36:39.551Z,6.84
2023-03-06T16:39:06.521Z,6.87
2023-03-06T16:41:32.861Z,6.93
2023-03-06T16:43:59.158Z,6.94
2023-03-06T16:46:25.590Z,6.91
2023-03-06T16:48:52.699Z,6.94
2023-03-06T16:51:20.229Z,6.99
2023-03-06T16:53:47.058Z,7.00
2023-03-06T16:56:14.648Z,6.98
2023-03-06T16:58:41.459Z,6.96
2023-03-06T17:01:08.645Z,6.97
2023-03-06T17:03:35.076Z,6.92
2023-03-06T17:06:01.350Z,6.92
2023-03-06T17:08:27.720Z,6.91
2023-03-06T17:10:54.085Z,6.91
2023-03-06T17:13:20.446Z,6.95
2023-03-06T17:15:56.373Z,7.00
2023-03-06T17:18:24.331Z,6.99
2023-03-06T17:20:51.696Z,6.91
2023-03-06T17:23:18.630Z,6.81
2023-03-06T17:25:45.118Z,6.73
2023-03-06T17:28:11.565Z,6.57
2023-03-06T17:30:37.936Z,6.29
2023-03-06T17:33:04.283Z,6.22
2023-03-06T17:35:30.759Z,6.18
2023-03-06T17:37:57.418Z,6.15
2023-03-06T17:40:23.871Z,6.12
2023-03-06T17:42:51.155Z,5.97
2023-03-06T17:45:17.479Z,5.99
2023-03-06T17:47:43.853Z,6.07
2023-03-06T17:50:10.400Z,6.03
2023-03-06T17:52:37.379Z,5.93
2023-03-06T17:55:03.766Z,5.98
2023-03-06T17:57:30.083Z,5.86
2023-03-06T17:59:56.783Z,5.92
2023-03-06T18:02:23.134Z,5.89
2023-03-06T18:04:50.149Z,5.89
2023-03-06T18:07:16.679Z,5.86
2023-03-06T18:09:43.194Z,5.87
2023-03-06T18:12:09.565Z,5.82
2023-03-06T18:14:37.047Z,5.86
2023-03-06T18:17:03.599Z,5.83
2023-03-06T18:19:29.892Z,5.87
2023-03-06T18:21:56.239Z,5.63
2023-03-06T18:24:23.436Z,5.65
2023-03-06T18:26:49.833Z,5.64
2023-03-06T18:29:16.173Z,5.64
2023-03-06T18:31:42.874Z,5.62
2023-03-06T18:34:11.006Z,5.56
2023-03-06T18:36:37.711Z,5.52
2023-03-06T18:39:06.174Z,5.62
2023-03-06T18:41:32.585Z,5.44
2023-03-06T18:43:59.776Z,5.50
2023-03-06T18:46:28.986Z,5.23
2023-03-06T18:48:55.295Z,5.40
2023-03-06T18:51:21.696Z,5.37
2023-03-06T18:53:48.065Z,5.41
2023-03-06T18:56:16.737Z,5.44
2023-03-06T18:58:43.541Z,5.24
2023-03-06T19:01:09.926Z,5.39
2023-03-06T19:03:36.353Z,5.23
2023-03-06T19:06:07.171Z,5.37
2023-03-06T19:08:34.127Z,5.32
2023-03-06T19:11:05.010Z,5.18
2023-03-06T19:13:31.715Z,5.30
2023-03-06T19:15:58.066Z,5.16
2023-03-06T19:18:25.115Z,5.24
2023-03-06T19:20:52.678Z,5.35
2023-03-06T19:23:19.294Z,5.27
2023-03-06T19:25:55.303Z,5.32
2023-03-06T19:28:21.608Z,5.27
2023-03-06T19:30:47.871Z,5.23
2023-03-06T19:33:15.486Z,5.19
2023-03-06T19:35:41.805Z,5.23
2023-03-06T19:38:09.884Z,5.31
2023-03-06T19:40:36.562Z,5.28
2023-03-06T19:43:03.099Z,5.16
2023-03-06T19:45:29.418Z,5.14
2023-03-06T19:48:00.623Z,5.07
2023-03-06T19:50:29.581Z,5.17
2023-03-06T19:52:56.989Z,5.12
2023-03-06T19:55:28.484Z,5.10
2023-03-06T19:57:54.812Z,5.21
2023-03-06T20:00:21.216Z,5.06
2023-03-06T20:02:47.529Z,5.03
2023-03-06T20:05:13.860Z,4.97
2023-03-06T20:07:40.180Z,5.01
2023-03-06T20:10:07.404Z,4.97
2023-03-06T20:12:35.970Z,5.04
2023-03-06T20:15:02.617Z,4.97
2023-03-06T20:17:28.874Z,4.88
2023-03-06T20:19:55.374Z,4.88
2023-03-06T20:22:21.706Z,4.91
2023-03-06T20:24:48.014Z,4.94
2023-03-06T20:27:14.326Z,4.80
2023-03-06T20:29:44.574Z,4.71
2023-03-06T20:32:11.894Z,4.75
2023-03-06T20:34:39.003Z,4.67
2023-03-06T20:37:06.110Z,4.63
2023-03-06T20:39:32.709Z,4.61
2023-03-06T20:42:00.046Z,4.65
2023-03-06T20:44:26.803Z,4.50
2023-03-06T20:46:53.157Z,4.53
2023-03-06T20:49:19.501Z,4.65
2023-03-06T20:51:45.752Z,4.63
2023-03-06T20:54:13.072Z,4.66
2023-03-06T20:56:40.953Z,4.65
2023-03-06T20:59:08.294Z,4.61
2023-03-06T21:01:36.241Z,4.61
2023-03-06T21:04:04.463Z,4.68
2023-03-06T21:06:31.844Z,4.65
2023-03-06T21:08:58.897Z,4.65
2023-03-06T21:11:25.707Z,4.69
2023-03-06T21:13:52.587Z,4.65
2023-03-06T21:16:19.745Z,4.67
2023-03-06T21:18:46.454Z,4.70
2023-03-06T21:21:14.495Z,4.65
2023-03-06T21:23:40.960Z,4.65
2023-03-06T21:26:07.261Z,4.64
2023-03-06T21:28:33.673Z,4.67
2023-03-06T21:31:02.383Z,4.85
2023-03-06T21:33:28.766Z,4.74
2023-03-06T21:35:55.111Z,4.73
2023-03-06T21:38:21.369Z,4.81
2023-03-06T21:40:47.664Z,4.73
2023-03-06T21:43:15.713Z,4.78
2023-03-06T21:45:45.874Z,4.86
2023-03-06T21:48:12.836Z,4.89
2023-03-06T21:50:39.558Z,5.02
2023-03-06T21:53:05.906Z,4.99
2023-03-06T21:55:32.213Z,5.03
2023-03-06T21:57:58.619Z,5.03
2023-03-06T22:00:25.755Z,5.13
2023-03-06T22:02:52.531Z,5.09
2023-03-06T22:05:21.288Z,5.16
2023-03-06T22:07:48.788Z,5.15
2023-03-06T22:10:15.884Z,5.20
2023-03-06T22:12:42.145Z,5.31
2023-03-06T22:15:09.549Z,5.37
2023-03-06T22:17:35.927Z,5.38
2023-03-06T22:20:02.341Z,5.39
2023-03-06T22:22:28.667Z,5.42
2023-03-06T22:24:58.010Z,5.46
2023-03-06T22:27:24.386Z,5.52
2023-03-06T22:29:50.701Z,5.63
2023-03-06T22:32:17.110Z,5.71
2023-03-06T22:34:43.434Z,5.68
2023-03-06T22:37:09.722Z,5.72
2023-03-06T22:39:36.048Z,5.74
2023-03-06T22:42:02.385Z,5.72
2023-03-06T22:44:28.684Z,5.78
2023-03-06T22:46:55.127Z,5.75
2023-03-06T22:49:21.473Z,5.82
2023-03-06T22:51:47.801Z,5.84
2023-03-06T22:54:14.094Z,5.87
2023-03-06T22:56:40.622Z,5.79
2023-03-06T22:59:06.931Z,5.79
2023-03-06T23:01:33.944Z,5.89
2023-03-06T23:04:02.191Z,5.80
2023-03-06T23:06:46.968Z,5.86
2023-03-06T23:09:15.838Z,5.82
2023-03-06T23:11:42.396Z,5.89
2023-03-06T23:14:11.990Z,5.83
2023-03-06T23:16:38.607Z,5.82
2023-03-06T23:19:05.590Z,5.84
2023-03-06T23:21:32.217Z,5.84
2023-03-06T23:23:58.941Z,5.76
2023-03-06T23:26:26.674Z,5.79
2023-03-06T23:28:53.177Z,5.73
2023-03-06T23:31:22.953Z,5.78
2023-03-06T23:33:49.578Z,5.79
2023-03-06T23:36:17.165Z,5.81
2023-03-06T23:38:43.749Z,5.77
2023-03-06T23:41:14.369Z,5.80
2023-03-06T23:43:40.810Z,5.75
2023-03-06T23:46:07.465Z,5.70
2023-03-06T23:48:36.388Z,5.71
2023-03-06T23:51:07.363Z,5.60
2023-03-06T23:53:33.688Z,5.58
2023-03-06T23:56:00.024Z,5.51
2023-03-06T23:58:26.363Z,5.48
